Flight Track Log - Related Links

Times and Time Zones

All times are in EDT time to prevent confusion due to time zone crossing. See the RPA976 flight status page for this flight to view local times or setup timezone preferences in your user account.

Time Position Orientation Groundspeed Altitude Reporting Facility
EDT Latitude Longitude Course Direction KTS MPH feet Rate Location/Type
Mon 09:13:42 AM 39.2592 -106.8861 286° West 168 193 9,600  Level Denver Center
Mon 09:14:42 AM 39.2717 -106.9425 323° Northwest 184 212 12,100 2,400 Climbing Denver Center
Mon 09:15:42 AM 39.3047 -106.9750 61° Northeast 199 229 14,400 2,150 Climbing Denver Center
Mon 09:16:42 AM 39.3342 -106.9053 84° East 241 277 16,400 2,050 Climbing Denver Center
Mon 09:17:42 AM 39.3408 -106.8194 88° East 241 277 18,500 1,800 Climbing Denver Center
Mon 09:18:42 AM 39.3431 -106.7308 94° East 241 277 20,000 1,350 Climbing Denver Center
Mon 09:19:42 AM 39.3392 -106.6503 87° East 236 272 21,200 1,250 Climbing Denver Center
Mon 09:20:42 AM 39.3433 -106.5536 93° East 252 290 22,500 900 Climbing Denver Center
Mon 09:21:42 AM 39.3392 -106.4383 103° East 282 325 23,000 250 Climbing Denver Center
Mon 09:22:42 AM 39.3183 -106.3228 94° East 313 360 23,000  Level Denver Center
Mon 09:23:42 AM 39.3119 -106.2075 92° East 346 398 23,000 50 Level Denver Center
Mon 09:24:42 AM 39.3072 -106.0600 95° East 368 423 23,100  Climbing Denver Center
Mon 09:25:42 AM 39.2983 -105.9286 94° East 368 423 23,000 -400 Descending Denver Center
Mon 09:26:42 AM 39.2914 -105.7997 95° East 368 423 22,300 -1,250 Descending Denver Center
Mon 09:27:42 AM 39.2822 -105.6658 96° East 369 425 20,500 -1,850 Descending Denver Center
Mon 09:28:42 AM 39.2708 -105.5344 94° East 369 425 18,600 -1,750 Descending Denver Center
Mon 09:29:42 AM 39.2633 -105.4006 83° East 369 425 17,000 -1,300 Descending Denver Center
Mon 09:30:42 AM 39.2747 -105.2822 55° Northeast 346 398 16,000 -650 Descending Denver Center
Mon 09:31:42 AM 39.3219 -105.1956 48° Northeast 324 373 15,700 -800 Descending Denver Center
Mon 09:32:42 AM 39.3833 -105.1058 62° Northeast 324 373 14,400 -1,300 Descending Denver Center
Mon 09:33:42 AM 39.4239 -105.0083 80° East 319 367 13,100 -700 Descending Denver Center
Mon 09:34:42 AM 39.4372 -104.9086 45° Northeast 294 338 13,000 -100 Descending Denver Center
Mon 09:35:42 AM 39.4864 -104.8456 36° Northeast 247 284 12,900 -700 Descending Denver Center
Mon 09:36:42 AM 39.5419 -104.7931 33° Northeast 241 277 11,600 -1,250 Descending Denver Center
Mon 09:37:42 AM 39.6036 -104.7403 34° Northeast 241 277 10,400 -1,250 Descending Denver Center
Mon 09:38:42 AM 39.6611 -104.6903 14° North 241 277 9,100 -1,318 Descending Denver Center
Mon 09:39:54 AM 39.7333 -104.6667 360° North 210 242 7,500 -1,190 Descending Denver TRACON
Mon 09:40:48 AM 39.7667 -104.6667 360° North 167 192 6,600 -833 Descending Denver TRACON
Mon 09:41:42 AM 39.8000 -104.6667 360° North 131 151 6,000 -667 Descending Denver TRACON

Login

Don't have an account? Register now (free) for customized features, flight alerts, and more!